Time;durP1;ratioP1;P1;durP2;ratioP2;P2;SDS_P1;SDS_P2;PMS_P1;PMS_P2;Temp;Humidity;BMP_temperature;BMP_pressure;BME280_temperature;BME280_humidity;BME280_pressure;Samples;Min_cycle;Max_cycle;Signal;HPM_P1;HPM_P2
2022/11/14 00:00:52;;;;;;;4.65;2.83;;;15.70;85.40;;;;;;5052417;28;20491;-75
2022/11/14 00:03:17;;;;;;;5.70;3.20;;;15.70;85.40;;;;;;5051183;28;20032;-75
2022/11/14 00:05:44;;;;;;;3.08;2.78;;;15.70;85.40;;;;;;5051127;28;20082;-75
2022/11/14 00:08:20;;;;;;;3.40;2.95;;;15.60;85.40;;;;;;5021034;28;20034;-75
2022/11/14 00:10:47;;;;;;;4.90;2.90;;;15.70;85.40;;;;;;5035318;28;20035;-75
2022/11/14 00:13:13;;;;;;;3.17;2.88;;;15.70;85.40;;;;;;5034975;28;20112;-75
2022/11/14 00:15:38;;;;;;;5.55;3.00;;;15.70;85.40;;;;;;5035350;28;20097;-75
2022/11/14 00:18:04;;;;;;;3.17;2.70;;;15.70;85.40;;;;;;5035019;28;20104;-75
2022/11/14 00:20:31;;;;;;;5.40;2.70;;;15.60;85.40;;;;;;5035381;28;20104;-75
2022/11/14 00:22:56;;;;;;;4.35;2.67;;;15.60;85.40;;;;;;5035035;28;20108;-75
2022/11/14 00:25:22;;;;;;;4.53;3.15;;;15.60;86.40;;;;;;5034970;28;20148;-75
2022/11/14 00:27:47;;;;;;;4.40;3.05;;;15.70;85.40;;;;;;5036170;28;20091;-75
2022/11/14 00:30:13;;;;;;;3.35;2.80;;;15.70;85.40;;;;;;5035963;28;20021;-75
2022/11/14 00:32:39;;;;;;;4.05;2.78;;;15.70;85.40;;;;;;5035032;28;20055;-75
2022/11/14 00:35:05;;;;;;;5.25;2.95;;;15.70;85.40;;;;;;5035965;28;20021;-75
2022/11/14 00:37:31;;;;;;;4.68;3.13;;;15.70;85.40;;;;;;5034793;28;20033;-75
2022/11/14 00:39:56;;;;;;;5.50;2.75;;;15.70;85.40;;;;;;5034938;28;20114;-75
2022/11/14 00:42:22;;;;;;;4.30;2.72;;;15.70;85.40;;;;;;5034585;28;20029;-75
2022/11/14 00:44:48;;;;;;;3.20;2.88;;;15.60;85.30;;;;;;5036047;28;20026;-75
2022/11/14 00:47:13;;;;;;;3.60;3.10;;;15.70;85.40;;;;;;5050852;28;20135;-75
2022/11/14 00:49:39;;;;;;;5.25;2.90;;;15.70;85.50;;;;;;5054533;28;20449;-75
2022/11/14 00:52:04;;;;;;;5.78;3.28;;;15.60;85.40;;;;;;5055530;28;20116;-75
2022/11/14 00:54:30;;;;;;;3.08;2.58;;;15.70;85.40;;;;;;5055593;28;20025;-75
2022/11/14 00:56:55;;;;;;;3.10;2.80;;;15.60;85.40;;;;;;5054159;28;20109;-75
2022/11/14 00:59:21;;;;;;;4.80;3.17;;;15.60;85.30;;;;;;5054467;28;20029;-75
2022/11/14 01:01:47;;;;;;;3.90;2.92;;;15.70;85.50;;;;;;5054223;28;20025;-75
2022/11/14 01:04:12;;;;;;;5.47;3.30;;;15.60;85.30;;;;;;5055336;28;20020;-75
2022/11/14 01:06:38;;;;;;;3.95;3.05;;;15.60;85.30;;;;;;5049416;28;20032;-76
2022/11/14 01:09:04;;;;;;;3.47;2.72;;;15.60;85.50;;;;;;5035347;28;20025;-75
2022/11/14 01:11:29;;;;;;;3.25;2.95;;;15.60;85.40;;;;;;5035233;28;20476;-75
2022/11/14 01:13:55;;;;;;;3.25;2.95;;;15.60;85.40;;;;;;5034137;28;20026;-75
2022/11/14 01:16:20;;;;;;;4.28;3.45;;;15.60;85.30;;;;;;5034098;28;20038;-75
2022/11/14 01:18:46;;;;;;;3.83;3.35;;;15.60;85.40;;;;;;5033140;28;20021;-75
2022/11/14 01:21:12;;;;;;;4.55;2.70;;;15.60;85.40;;;;;;5034179;28;20080;-75
2022/11/14 01:23:38;;;;;;;5.05;3.35;;;15.60;85.40;;;;;;5033913;28;20025;-75
2022/11/14 01:26:06;;;;;;;4.38;3.10;;;15.60;85.30;;;;;;5033809;28;20106;-75
2022/11/14 01:28:31;;;;;;;3.65;3.10;;;15.60;85.30;;;;;;5034117;28;20040;-75
2022/11/14 01:31:09;;;;;;;3.72;2.95;;;15.60;85.40;;;;;;5033762;28;20037;-75
2022/11/14 01:33:35;;;;;;;5.07;3.67;;;15.60;85.30;;;;;;5034763;28;20542;-75
2022/11/14 01:36:00;;;;;;;3.80;2.90;;;15.60;85.40;;;;;;5033821;28;20116;-75
2022/11/14 01:38:26;;;;;;;4.38;2.95;;;15.60;85.40;;;;;;5033910;28;20092;-75
2022/11/14 01:40:51;;;;;;;4.60;2.92;;;15.60;85.40;;;;;;5033691;28;20025;-75
2022/11/14 01:43:17;;;;;;;3.35;3.00;;;15.60;85.40;;;;;;5033596;28;20500;-75
2022/11/14 01:45:53;;;;;;;3.45;3.00;;;15.60;85.30;;;;;;5037495;28;20040;-75
2022/11/14 01:48:36;;;;;;;3.55;2.85;;;15.60;85.40;;;;;;5053341;28;20057;-75
2022/11/14 01:51:23;;;;;;;4.10;3.08;;;15.60;85.40;;;;;;5053533;28;20406;-75
2022/11/14 01:53:51;;;;;;;4.47;3.30;;;15.60;85.30;;;;;;5053288;28;20436;-75
2022/11/14 01:56:18;;;;;;;4.07;3.50;;;15.60;85.40;;;;;;5020233;28;20447;-75
2022/11/14 01:58:49;;;;;;;3.75;2.75;;;15.60;85.30;;;;;;5036723;28;20041;-75
2022/11/14 02:01:14;;;;;;;4.45;2.97;;;15.60;85.40;;;;;;5053346;28;20029;-75
2022/11/14 02:03:41;;;;;;;4.75;3.28;;;15.60;86.40;;;;;;5054217;28;20052;-75
2022/11/14 02:06:08;;;;;;;4.60;3.67;;;15.60;85.30;;;;;;5035906;28;20066;-75
2022/11/14 02:08:34;;;;;;;4.82;3.47;;;15.60;85.40;;;;;;5033050;28;20109;-75
2022/11/14 02:10:59;;;;;;;5.15;3.33;;;15.60;85.40;;;;;;5033189;28;20112;-75
2022/11/14 02:13:25;;;;;;;4.53;3.15;;;15.60;85.40;;;;;;5034226;28;20029;-75
2022/11/14 02:15:51;;;;;;;6.50;3.10;;;15.60;85.30;;;;;;5034391;28;20025;-75
2022/11/14 02:18:16;;;;;;;4.75;3.60;;;15.60;85.40;;;;;;5032766;28;20022;-75
2022/11/14 02:20:42;;;;;;;5.80;3.45;;;15.60;85.40;;;;;;5032962;28;20480;-75
2022/11/14 02:23:11;;;;;;;3.92;3.38;;;15.60;85.40;;;;;;5033899;28;20049;-75
2022/11/14 02:25:37;;;;;;;5.22;3.13;;;15.60;85.30;;;;;;5032913;28;20033;-75
2022/11/14 02:28:04;;;;;;;4.50;3.28;;;15.60;85.30;;;;;;5032877;28;20067;-75
2022/11/14 02:30:29;;;;;;;6.20;3.20;;;15.60;85.40;;;;;;5032849;28;20160;-75
2022/11/14 02:32:55;;;;;;;4.90;3.20;;;15.60;85.40;;;;;;5032692;28;20108;-75
2022/11/14 02:35:20;;;;;;;5.68;3.33;;;15.60;85.50;;;;;;5033944;28;20515;-75
2022/11/14 02:37:46;;;;;;;5.93;3.40;;;15.60;85.40;;;;;;5032451;28;20022;-75
2022/11/14 02:40:12;;;;;;;3.92;2.70;;;15.60;85.40;;;;;;5033712;28;20028;-75
2022/11/14 02:42:37;;;;;;;4.78;3.15;;;15.60;85.50;;;;;;5032652;28;20495;-75
2022/11/14 02:45:03;;;;;;;4.68;3.20;;;15.60;85.40;;;;;;5032586;28;20033;-75
2022/11/14 02:47:29;;;;;;;4.78;3.13;;;15.60;85.40;;;;;;5050874;28;20035;-75
2022/11/14 02:49:54;;;;;;;5.70;3.22;;;15.60;85.40;;;;;;5052440;28;20052;-75
2022/11/14 02:52:20;;;;;;;5.07;3.33;;;15.60;85.40;;;;;;5053036;28;20466;-75
2022/11/14 02:54:46;;;;;;;4.93;2.75;;;15.60;85.40;;;;;;5052131;28;20029;-75
2022/11/14 02:57:11;;;;;;;4.38;3.10;;;15.60;85.40;;;;;;5051960;28;20045;-75
2022/11/14 02:59:37;;;;;;;3.90;3.42;;;15.60;85.40;;;;;;5053257;28;20022;-75
2022/11/14 03:02:02;;;;;;;3.53;3.00;;;15.60;85.40;;;;;;5053329;28;20380;-75
2022/11/14 03:04:28;;;;;;;2.97;2.65;;;15.60;85.40;;;;;;5053150;28;20557;-75
2022/11/14 03:06:54;;;;;;;3.63;3.25;;;15.60;85.40;;;;;;5044859;28;20439;-75
2022/11/14 03:09:19;;;;;;;4.40;3.15;;;15.60;86.40;;;;;;5032087;28;20503;-75
2022/11/14 03:11:45;;;;;;;4.90;3.10;;;15.60;85.40;;;;;;5031808;28;20030;-75
2022/11/14 03:14:10;;;;;;;4.72;2.65;;;15.60;85.40;;;;;;5031927;28;20403;-75
2022/11/14 03:16:36;;;;;;;3.50;3.10;;;15.60;86.40;;;;;;5015493;28;20488;-75
2022/11/14 03:19:02;;;;;;;3.25;2.95;;;15.60;85.40;;;;;;5015282;28;20496;-75
2022/11/14 03:21:27;;;;;;;3.55;3.20;;;15.60;85.40;;;;;;5032679;28;20029;-75
2022/11/14 03:23:53;;;;;;;3.67;2.97;;;15.50;85.40;;;;;;5031869;28;20025;-76
2022/11/14 03:26:19;;;;;;;3.40;3.10;;;15.60;85.40;;;;;;5031763;28;20033;-75
2022/11/14 03:28:44;;;;;;;3.22;2.80;;;15.60;85.40;;;;;;5031654;28;20023;-75
2022/11/14 03:31:11;;;;;;;3.28;2.97;;;15.60;85.50;;;;;;5032912;28;20573;-75
2022/11/14 03:33:36;;;;;;;4.88;3.30;;;15.60;86.40;;;;;;5031597;28;20025;-75
2022/11/14 03:36:02;;;;;;;3.55;2.95;;;15.60;85.50;;;;;;5032576;28;20030;-75
2022/11/14 03:38:28;;;;;;;4.78;3.10;;;15.60;85.40;;;;;;5031508;28;20016;-75
2022/11/14 03:40:54;;;;;;;4.00;3.00;;;15.60;85.40;;;;;;5031336;28;20026;-75
2022/11/14 03:43:20;;;;;;;3.97;3.40;;;15.60;85.40;;;;;;5032450;28;20032;-75
2022/11/14 03:45:46;;;;;;;4.35;3.00;;;15.60;85.50;;;;;;5035990;28;20036;-75
2022/11/14 03:48:11;;;;;;;3.20;2.90;;;15.60;85.40;;;;;;5034794;28;20024;-75
2022/11/14 03:50:37;;;;;;;3.85;3.10;;;15.60;85.40;;;;;;5051118;28;20109;-75
2022/11/14 03:53:03;;;;;;;4.85;3.35;;;15.60;86.40;;;;;;5051296;28;20036;-75
2022/11/14 03:55:28;;;;;;;3.83;3.05;;;15.60;85.40;;;;;;5051161;28;20021;-75
2022/11/14 03:57:54;;;;;;;4.60;3.00;;;15.60;85.40;;;;;;5034564;28;20041;-75
2022/11/14 04:00:20;;;;;;;4.40;3.70;;;15.60;85.40;;;;;;5052240;28;20032;-75
2022/11/14 04:02:46;;;;;;;5.38;3.35;;;15.60;85.40;;;;;;5051346;28;20040;-76
2022/11/14 04:05:12;;;;;;;3.15;2.75;;;15.60;85.40;;;;;;5051056;28;20108;-75
2022/11/14 04:07:37;;;;;;;3.70;3.15;;;15.60;85.40;;;;;;5021706;28;20105;-75
2022/11/14 04:10:03;;;;;;;4.43;3.20;;;15.50;85.40;;;;;;5031140;28;20025;-75
2022/11/14 04:12:29;;;;;;;4.30;3.45;;;15.50;85.40;;;;;;5030972;28;20026;-75
2022/11/14 04:14:55;;;;;;;4.35;3.17;;;15.60;85.50;;;;;;5032405;28;20052;-76
2022/11/14 04:17:20;;;;;;;5.80;3.65;;;15.50;85.40;;;;;;5014647;28;20487;-75
2022/11/14 04:19:46;;;;;;;5.80;3.30;;;15.50;85.40;;;;;;5032009;28;20021;-75
2022/11/14 04:22:11;;;;;;;4.07;3.10;;;15.50;85.40;;;;;;5031125;28;20053;-75
2022/11/14 04:24:37;;;;;;;4.03;2.83;;;15.50;85.40;;;;;;5032313;28;20179;-75
2022/11/14 04:27:03;;;;;;;5.00;3.38;;;15.50;85.40;;;;;;5031201;28;20464;-75
2022/11/14 04:29:28;;;;;;;4.25;3.35;;;15.50;85.40;;;;;;5030969;28;20112;-75
2022/11/14 04:31:54;;;;;;;3.72;3.22;;;15.50;85.40;;;;;;5032401;28;20025;-75
2022/11/14 04:34:20;;;;;;;4.50;3.42;;;15.50;85.40;;;;;;5030758;28;20385;-75
2022/11/14 04:36:45;;;;;;;6.28;3.20;;;15.60;85.40;;;;;;5032114;28;20026;-75
2022/11/14 04:39:11;;;;;;;5.05;3.50;;;15.50;85.40;;;;;;5032448;28;20029;-75
2022/11/14 04:41:36;;;;;;;5.63;3.40;;;15.60;85.40;;;;;;5032255;28;20018;-75
2022/11/14 04:44:02;;;;;;;3.63;3.00;;;15.50;85.40;;;;;;5030926;28;20085;-75
2022/11/14 04:46:28;;;;;;;3.85;3.17;;;15.50;85.40;;;;;;5042198;28;20303;-75
2022/11/14 04:48:53;;;;;;;3.55;3.08;;;15.50;85.40;;;;;;5050485;28;20033;-75
2022/11/14 04:51:19;;;;;;;5.57;3.25;;;15.50;85.40;;;;;;5050799;28;20029;-75
2022/11/14 04:53:44;;;;;;;3.75;3.33;;;15.50;85.40;;;;;;5051966;28;20029;-75
2022/11/14 04:56:10;;;;;;;5.53;3.03;;;15.50;85.40;;;;;;5054450;28;20104;-75
2022/11/14 04:58:36;;;;;;;4.40;3.20;;;15.50;85.40;;;;;;5054269;28;20061;-75
2022/11/14 05:01:11;;;;;;;4.25;3.45;;;15.50;85.40;;;;;;5054409;28;20017;-75
2022/11/14 05:03:37;;;;;;;4.88;3.20;;;15.60;85.50;;;;;;5037948;28;20021;-75
2022/11/14 05:06:02;;;;;;;5.53;3.40;;;15.50;85.40;;;;;;5054302;28;20021;-75
2022/11/14 05:08:28;;;;;;;4.65;3.45;;;15.50;85.40;;;;;;5017756;28;20048;-75
2022/11/14 05:10:54;;;;;;;4.75;3.20;;;15.50;85.40;;;;;;5034377;28;20033;-75
2022/11/14 05:13:19;;;;;;;5.50;3.55;;;15.50;85.40;;;;;;5035372;28;20033;-75
2022/11/14 05:15:45;;;;;;;4.25;3.28;;;15.50;85.40;;;;;;5035489;28;20021;-75
2022/11/14 05:18:11;;;;;;;5.32;3.30;;;15.50;85.40;;;;;;5035255;28;20500;-75
2022/11/14 05:20:36;;;;;;;4.88;3.53;;;15.50;85.50;;;;;;5033914;28;20022;-75
2022/11/14 05:23:02;;;;;;;6.00;3.22;;;15.50;85.40;;;;;;5034191;28;20037;-75
2022/11/14 05:25:28;;;;;;;4.45;3.30;;;15.50;85.40;;;;;;5034017;28;20030;-75
2022/11/14 05:27:53;;;;;;;6.70;4.07;;;15.50;86.40;;;;;;5034149;28;20411;-75
2022/11/14 05:30:19;;;;;;;6.47;3.17;;;15.50;85.40;;;;;;5033918;28;20627;-75
2022/11/14 05:32:45;;;;;;;5.10;3.38;;;15.50;85.50;;;;;;5034738;28;20526;-75
2022/11/14 05:35:10;;;;;;;4.93;3.28;;;15.50;85.40;;;;;;5033946;28;20539;-75
2022/11/14 05:37:36;;;;;;;5.80;3.83;;;15.50;85.40;;;;;;5033760;28;20479;-75
2022/11/14 05:40:03;;;;;;;5.68;3.40;;;15.50;85.40;;;;;;5033722;28;20084;-75
2022/11/14 05:42:28;;;;;;;5.65;3.53;;;15.50;85.40;;;;;;5033705;28;20034;-75
2022/11/14 05:44:54;;;;;;;5.18;3.20;;;15.50;85.40;;;;;;5034654;28;20029;-75
2022/11/14 05:47:19;;;;;;;4.85;3.47;;;15.50;85.40;;;;;;5051877;28;20033;-75
2022/11/14 05:49:45;;;;;;;5.35;3.78;;;15.50;85.40;;;;;;5054509;28;20025;-75
2022/11/14 05:52:11;;;;;;;4.45;3.13;;;15.50;85.40;;;;;;5053365;28;20534;-75
2022/11/14 05:54:36;;;;;;;5.00;3.45;;;15.50;85.40;;;;;;5053347;28;20024;-75
2022/11/14 05:57:02;;;;;;;5.00;3.35;;;15.50;85.40;;;;;;5053203;28;20418;-75
2022/11/14 05:59:28;;;;;;;4.20;3.80;;;15.50;85.40;;;;;;5053142;28;20021;-75
2022/11/14 06:01:53;;;;;;;7.07;3.92;;;15.50;85.40;;;;;;5053117;28;20036;-75
2022/11/14 06:04:19;;;;;;;5.63;3.55;;;15.50;85.40;;;;;;5052697;28;20033;-75
2022/11/14 06:06:45;;;;;;;4.65;3.40;;;15.50;85.40;;;;;;5048736;28;20021;-75
2022/11/14 06:09:10;;;;;;;5.15;3.70;;;15.50;85.40;;;;;;5033161;28;20384;-75
2022/11/14 06:11:36;;;;;;;5.13;3.03;;;15.50;85.50;;;;;;5033098;28;20498;-75
2022/11/14 06:14:02;;;;;;;4.78;3.38;;;15.50;85.50;;;;;;5034086;28;20025;-75
2022/11/14 06:16:27;;;;;;;4.88;3.50;;;15.50;85.40;;;;;;5033030;28;20472;-75
2022/11/14 06:18:53;;;;;;;3.45;3.15;;;15.50;85.40;;;;;;5034289;28;20053;-75
2022/11/14 06:21:20;;;;;;;5.65;3.40;;;15.50;85.40;;;;;;5032880;28;20511;-75
2022/11/14 06:23:46;;;;;;;5.45;3.60;;;15.50;85.40;;;;;;5032920;28;20025;-75
2022/11/14 06:26:29;;;;;;;6.18;3.42;;;15.50;85.40;;;;;;5016346;28;20502;-75
2022/11/14 06:28:54;;;;;;;3.90;3.17;;;15.50;85.40;;;;;;5032578;28;20032;-75
2022/11/14 06:31:21;;;;;;;5.15;3.10;;;15.50;85.40;;;;;;5032991;28;20041;-75
2022/11/14 06:33:47;;;;;;;3.58;3.25;;;15.50;85.40;;;;;;5032917;28;20025;-75
2022/11/14 06:36:12;;;;;;;3.17;2.63;;;15.50;85.40;;;;;;5032764;28;20071;-75
2022/11/14 06:38:39;;;;;;;4.82;3.47;;;15.50;85.50;;;;;;5033726;28;20018;-75
2022/11/14 06:41:05;;;;;;;5.57;3.50;;;15.60;85.50;;;;;;5032651;28;20026;-75
2022/11/14 06:43:41;;;;;;;4.45;3.38;;;15.50;85.50;;;;;;5032386;28;20022;-75
2022/11/14 06:46:07;;;;;;;5.30;3.10;;;15.50;85.40;;;;;;5039668;28;20475;-75
2022/11/14 06:48:33;;;;;;;4.07;3.05;;;15.50;85.50;;;;;;5052500;28;20017;-75
2022/11/14 06:50:59;;;;;;;5.75;3.42;;;15.50;85.40;;;;;;5052093;28;20040;-75
2022/11/14 06:53:26;;;;;;;4.32;3.05;;;15.50;85.40;;;;;;5053413;28;20020;-75
2022/11/14 06:55:59;;;;;;;3.80;3.00;;;15.50;85.40;;;;;;5036032;28;20032;-75
2022/11/14 06:58:29;;;;;;;4.10;3.40;;;15.50;85.40;;;;;;5052984;28;20040;-75
2022/11/14 07:00:54;;;;;;;3.78;3.30;;;15.50;85.50;;;;;;5035552;28;20102;-75
2022/11/14 07:03:20;;;;;;;3.03;2.80;;;15.50;86.50;;;;;;5035654;28;20446;-75
2022/11/14 07:05:46;;;;;;;4.45;3.00;;;15.50;85.50;;;;;;5035660;28;20029;-75
2022/11/14 07:08:12;;;;;;;3.63;3.13;;;15.50;85.50;;;;;;5035566;28;20033;-75
2022/11/14 07:10:38;;;;;;;3.42;2.80;;;15.50;85.50;;;;;;5032143;28;20030;-75
2022/11/14 07:13:03;;;;;;;4.57;3.20;;;15.60;85.50;;;;;;5015151;28;20021;-75
2022/11/14 07:15:29;;;;;;;4.57;2.75;;;15.50;85.40;;;;;;5032936;28;20032;-75
2022/11/14 07:17:55;;;;;;;4.57;3.22;;;15.50;85.50;;;;;;5032668;28;20047;-75
2022/11/14 07:20:20;;;;;;;5.15;3.22;;;15.50;85.50;;;;;;5032985;28;20122;-75
2022/11/14 07:22:46;;;;;;;3.85;3.22;;;15.50;85.50;;;;;;5032001;28;20547;-75
2022/11/14 07:25:12;;;;;;;4.28;3.35;;;15.50;85.50;;;;;;5031961;28;20045;-75
2022/11/14 07:27:38;;;;;;;3.38;3.08;;;15.50;85.50;;;;;;5032712;28;20032;-75
2022/11/14 07:30:04;;;;;;;3.85;3.45;;;15.50;85.50;;;;;;5031929;28;20108;-75
2022/11/14 07:32:29;;;;;;;4.15;3.13;;;15.50;85.50;;;;;;5031532;28;20075;-75
2022/11/14 07:34:55;;;;;;;4.72;3.22;;;15.50;85.40;;;;;;5031779;28;20030;-75
2022/11/14 07:37:21;;;;;;;5.10;3.53;;;15.50;85.50;;;;;;5032658;28;20029;-76
2022/11/14 07:39:46;;;;;;;3.65;3.10;;;15.50;85.50;;;;;;5032895;28;20017;-75
2022/11/14 07:42:12;;;;;;;3.83;3.00;;;15.50;85.50;;;;;;5031339;28;20024;-75
2022/11/14 07:44:38;;;;;;;3.47;3.00;;;15.50;85.50;;;;;;5031599;28;20036;-75
2022/11/14 07:47:03;;;;;;;3.97;3.10;;;15.50;85.50;;;;;;5046599;28;20059;-75
2022/11/14 07:49:29;;;;;;;3.25;2.95;;;15.50;85.40;;;;;;5051250;28;20025;-75
2022/11/14 07:51:54;;;;;;;4.88;2.95;;;15.50;85.40;;;;;;5051265;28;20017;-75
2022/11/14 07:54:20;;;;;;;3.58;3.13;;;15.50;85.50;;;;;;5052485;28;20029;-75
2022/11/14 07:56:46;;;;;;;4.95;3.33;;;15.50;85.40;;;;;;5052071;28;20084;-75
2022/11/14 07:59:11;;;;;;;4.05;2.67;;;15.50;85.40;;;;;;5052542;28;20029;-75
2022/11/14 08:01:37;;;;;;;3.20;2.90;;;15.50;85.40;;;;;;5052381;28;20107;-75
2022/11/14 08:04:03;;;;;;;2.88;2.67;;;15.50;85.40;;;;;;5051205;28;20072;-75
2022/11/14 08:06:28;;;;;;;4.43;2.78;;;15.50;85.40;;;;;;5047510;28;20049;-75
2022/11/14 08:08:54;;;;;;;3.08;2.78;;;15.50;85.50;;;;;;5032418;28;20036;-76
2022/11/14 08:11:46;;;;;;;3.92;2.85;;;15.50;85.50;;;;;;5031105;28;20515;-75
2022/11/14 08:14:06;;;;;;;3.75;2.78;;;15.50;85.40;;;;;;5032307;28;20140;-75
2022/11/14 08:16:31;;;;;;;2.72;2.30;;;15.50;85.50;;;;;;5032368;28;20080;-75
2022/11/14 08:18:57;;;;;;;5.80;3.08;;;15.50;85.40;;;;;;5031079;28;20025;-75
2022/11/14 08:21:22;;;;;;;3.08;2.28;;;15.50;85.40;;;;;;5030985;28;20018;-75
2022/11/14 08:23:48;;;;;;;3.97;2.55;;;15.50;85.40;;;;;;5031246;28;20029;-75
2022/11/14 08:26:14;;;;;;;6.53;2.97;;;15.50;85.40;;;;;;5014361;28;20032;-75
2022/11/14 08:28:39;;;;;;;3.00;2.70;;;15.50;85.40;;;;;;5033879;28;20032;-75
2022/11/14 08:31:05;;;;;;;2.90;2.60;;;15.50;85.40;;;;;;5035042;28;20404;-75
2022/11/14 08:33:31;;;;;;;3.45;2.63;;;15.50;85.40;;;;;;5036060;28;20029;-75
2022/11/14 08:36:03;;;;;;;4.22;2.80;;;15.50;85.40;;;;;;5035030;28;20029;-75
2022/11/14 08:38:29;;;;;;;3.72;2.92;;;15.50;85.40;;;;;;5035033;28;20156;-75
2022/11/14 08:41:02;;;;;;;3.95;2.30;;;15.50;85.40;;;;;;5034715;28;20128;-75
2022/11/14 08:43:28;;;;;;;3.58;2.85;;;15.50;85.40;;;;;;5034919;28;20033;-75
2022/11/14 08:45:57;;;;;;;2.55;2.28;;;15.50;85.40;;;;;;5040063;28;20051;-75
2022/11/14 08:48:22;;;;;;;3.38;2.53;;;15.50;85.40;;;;;;5054736;28;20021;-75
2022/11/14 08:50:48;;;;;;;4.47;2.70;;;15.50;85.40;;;;;;5055632;28;20025;-75
2022/11/14 08:53:14;;;;;;;3.20;2.38;;;15.50;85.40;;;;;;5054677;28;20029;-75
2022/11/14 08:55:43;;;;;;;2.65;2.45;;;15.50;85.40;;;;;;5054224;28;20021;-75
2022/11/14 08:58:09;;;;;;;2.78;2.40;;;15.50;85.30;;;;;;5054307;28;20041;-75
2022/11/14 09:00:35;;;;;;;4.13;2.53;;;15.50;85.40;;;;;;5055671;28;20396;-75
2022/11/14 09:03:09;;;;;;;4.03;2.45;;;15.50;85.40;;;;;;5054229;28;20056;-75
2022/11/14 09:05:35;;;;;;;3.70;2.70;;;15.50;85.40;;;;;;5054254;28;20025;-75
2022/11/14 09:08:01;;;;;;;3.10;2.60;;;15.50;85.40;;;;;;5021545;28;20033;-75
2022/11/14 09:10:27;;;;;;;3.03;2.50;;;15.40;85.30;;;;;;5034232;28;20117;-75
2022/11/14 09:12:59;;;;;;;2.80;2.50;;;15.50;85.40;;;;;;5034196;28;20108;-75
2022/11/14 09:15:28;;;;;;;2.92;2.67;;;15.50;85.40;;;;;;5034169;28;20079;-75
2022/11/14 09:17:54;;;;;;;2.17;1.98;;;15.50;85.40;;;;;;5034048;28;20465;-75
2022/11/14 09:20:23;;;;;;;3.05;2.45;;;15.50;85.40;;;;;;5034058;28;20029;-75
2022/11/14 09:22:52;;;;;;;3.05;2.33;;;15.50;85.40;;;;;;5033659;28;20030;-75
2022/11/14 09:25:20;;;;;;;3.08;2.25;;;15.50;85.40;;;;;;5034125;28;20507;-75
2022/11/14 09:27:46;;;;;;;2.83;2.17;;;15.50;85.40;;;;;;5033783;28;20030;-75
2022/11/14 09:30:12;;;;;;;3.83;2.33;;;15.50;85.40;;;;;;5034130;28;20033;-75
2022/11/14 09:32:38;;;;;;;2.30;2.10;;;15.50;85.40;;;;;;5033747;28;20029;-75
2022/11/14 09:35:04;;;;;;;3.42;2.28;;;15.50;85.40;;;;;;5033776;28;20079;-75
2022/11/14 09:37:30;;;;;;;2.38;2.10;;;15.50;85.30;;;;;;5034818;28;20022;-75
2022/11/14 09:39:55;;;;;;;2.47;2.15;;;15.50;85.40;;;;;;5033035;28;20183;-75
2022/11/14 09:42:42;;;;;;;3.03;2.00;;;15.50;85.40;;;;;;5034765;28;20790;-75
2022/11/14 09:45:12;;;;;;;4.75;2.20;;;15.40;85.30;;;;;;5033578;28;20033;-75
2022/11/14 09:48:09;;;;;;;2.33;2.13;;;15.40;85.30;;;;;;5053100;28;20120;-75
2022/11/14 09:50:41;;;;;;;3.58;2.47;;;15.40;85.30;;;;;;5053970;28;20047;-75
2022/11/14 09:53:12;;;;;;;3.28;2.15;;;15.50;85.40;;;;;;5036936;28;20032;-75
2022/11/14 09:55:37;;;;;;;3.15;2.35;;;15.50;85.30;;;;;;5037222;28;20083;-75
2022/11/14 09:58:03;;;;;;;2.30;2.00;;;15.40;85.30;;;;;;5053121;28;20049;-75
2022/11/14 10:00:39;;;;;;;3.55;2.10;;;15.40;85.30;;;;;;5036886;28;20029;-75
2022/11/14 10:03:30;;;;;;;3.03;2.05;;;15.40;85.30;;;;;;5053382;28;20055;-75
2022/11/14 10:06:29;;;;;;;4.07;2.40;;;15.50;85.40;;;;;;5053223;28;20029;-75
2022/11/14 10:09:14;;;;;;;2.35;1.83;;;15.40;85.30;;;;;;5034427;28;20057;-75
2022/11/14 10:12:12;;;;;;;3.25;1.95;;;15.40;85.40;;;;;;5032850;28;20057;-75
2022/11/14 10:14:58;;;;;;;2.60;2.20;;;15.40;85.30;;;;;;5033110;28;20021;-75
2022/11/14 10:17:49;;;;;;;3.33;2.20;;;15.40;85.30;;;;;;5033190;28;20432;-75
2022/11/14 10:20:33;;;;;;;2.67;2.17;;;15.40;85.30;;;;;;5032751;28;20034;-75
2022/11/14 10:23:23;;;;;;;1.83;1.73;;;15.40;86.30;;;;;;5032927;28;20083;-75
2022/11/14 10:25:54;;;;;;;2.97;1.95;;;15.40;85.30;;;;;;5018783;28;20022;-75
2022/11/14 10:28:32;;;;;;;3.10;2.25;;;15.40;85.30;;;;;;5032994;28;20123;-75
2022/11/14 10:31:02;;;;;;;2.58;2.38;;;15.50;85.40;;;;;;5033974;28;20026;-75
2022/11/14 10:33:38;;;;;;;2.20;1.88;;;15.40;85.40;;;;;;5016056;28;20484;-75
2022/11/14 10:36:26;;;;;;;2.28;1.90;;;15.40;85.30;;;;;;5032491;28;20101;-75
2022/11/14 10:39:03;;;;;;;3.22;1.80;;;15.40;85.40;;;;;;5032642;28;20029;-75
2022/11/14 10:41:29;;;;;;;2.95;1.88;;;15.40;85.30;;;;;;5032649;28;20084;-75
2022/11/14 10:43:55;;;;;;;2.10;1.90;;;15.40;85.40;;;;;;5032420;28;20060;-75
2022/11/14 10:46:25;;;;;;;2.42;1.80;;;15.40;85.40;;;;;;5038286;28;20036;-75
2022/11/14 10:48:51;;;;;;;3.97;2.28;;;15.40;85.40;;;;;;5049115;28;20029;-75
2022/11/14 10:51:40;;;;;;;4.45;2.50;;;15.40;85.30;;;;;;5031309;28;20018;-75
2022/11/14 10:54:08;;;;;;;2.33;1.70;;;15.40;85.30;;;;;;5035491;28;20119;-75
2022/11/14 10:56:34;;;;;;;2.28;1.80;;;15.40;85.40;;;;;;5033580;28;20079;-75
2022/11/14 10:59:00;;;;;;;2.03;1.83;;;15.40;85.30;;;;;;5048678;28;20045;-75
2022/11/14 11:01:38;;;;;;;2.10;1.55;;;15.40;85.30;;;;;;5032181;28;20025;-75
2022/11/14 11:04:13;;;;;;;3.63;1.83;;;15.40;85.40;;;;;;5048371;28;20079;-75
2022/11/14 11:06:39;;;;;;;4.70;1.98;;;15.40;85.50;;;;;;5033231;28;20446;-75
2022/11/14 11:11:57;;;;;;;1.90;1.50;;;15.40;85.50;;;;;;5032307;28;20048;-75
2022/11/14 11:14:23;;;;;;;2.58;2.00;;;15.40;85.50;;;;;;5031901;28;20483;-75
2022/11/14 11:16:49;;;;;;;2.00;1.80;;;15.40;85.40;;;;;;5031922;28;20031;-75
2022/11/14 11:19:25;;;;;;;2.53;1.85;;;15.40;85.50;;;;;;5031954;28;20099;-75
2022/11/14 11:21:51;;;;;;;2.97;1.60;;;15.40;85.40;;;;;;5032041;28;20014;-75
2022/11/14 11:24:33;;;;;;;2.17;1.85;;;15.40;85.50;;;;;;5033019;28;20104;-75
2022/11/14 11:27:26;;;;;;;2.35;1.77;;;15.40;85.40;;;;;;5031749;28;20397;-75
2022/11/14 11:30:04;;;;;;;1.80;1.70;;;15.40;85.40;;;;;;5014195;28;20033;-75
2022/11/14 11:32:30;;;;;;;2.28;1.90;;;15.40;85.40;;;;;;5032846;28;20028;-75
2022/11/14 11:35:00;;;;;;;3.03;2.10;;;15.40;85.40;;;;;;5031445;28;20025;-75
2022/11/14 11:37:47;;;;;;;1.90;1.70;;;15.40;85.40;;;;;;5015011;28;20084;-75
2022/11/14 11:40:16;;;;;;;2.95;1.73;;;15.40;85.50;;;;;;5031891;28;20029;-75
2022/11/14 11:42:46;;;;;;;4.50;1.95;;;15.40;85.50;;;;;;5031383;28;20049;-75
2022/11/14 11:45:16;;;;;;;3.53;1.88;;;15.40;85.50;;;;;;5031625;28;20117;-75
2022/11/14 11:47:47;;;;;;;3.40;1.80;;;15.40;85.50;;;;;;5031156;28;20041;-75
2022/11/14 11:50:17;;;;;;;2.30;1.60;;;15.40;85.50;;;;;;5015747;28;20035;-75
2022/11/14 11:53:10;;;;;;;4.90;1.85;;;15.40;85.50;;;;;;5015017;28;20028;-75
2022/11/14 11:55:40;;;;;;;3.67;1.80;;;15.40;85.50;;;;;;5032649;28;20026;-75
2022/11/14 11:58:22;;;;;;;2.42;1.98;;;15.40;85.50;;;;;;5015065;28;20500;-75
2022/11/14 12:00:53;;;;;;;3.50;1.73;;;15.40;85.50;;;;;;5016700;28;20022;-75
2022/11/14 12:03:19;;;;;;;2.95;1.70;;;15.40;85.40;;;;;;5014788;28;20040;-75
2022/11/14 12:06:33;;;;;;;3.33;1.70;;;15.40;85.50;;;;;;4998505;28;20021;-75
2022/11/14 12:09:23;;;;;;;4.80;2.17;;;15.40;85.50;;;;;;5030758;28;20033;-75
2022/11/14 12:12:02;;;;;;;3.05;1.60;;;15.40;85.50;;;;;;5017204;28;20037;-75
2022/11/14 12:15:18;;;;;;;3.75;1.70;;;15.40;85.50;;;;;;5031195;28;20021;-75
2022/11/14 12:17:55;;;;;;;2.75;1.67;;;15.40;85.50;;;;;;5029678;28;20025;-75
2022/11/14 12:20:39;;;;;;;1.77;1.67;;;15.40;85.60;;;;;;4982044;28;20486;-75
2022/11/14 12:23:07;;;;;;;1.60;1.40;;;15.40;85.50;;;;;;5030264;28;20045;-75
2022/11/14 12:26:00;;;;;;;1.75;1.65;;;15.40;85.50;;;;;;5030079;28;20319;-75
2022/11/14 12:28:33;;;;;;;;;;;15.40;85.60;;;;;;5030607;28;20068;-75
2022/11/14 12:31:01;;;;;;;5.03;1.83;;;15.40;85.50;;;;;;5013870;28;19999;-75
2022/11/14 12:33:42;;;;;;;4.60;1.75;;;15.40;85.60;;;;;;5013578;28;20029;-75
2022/11/14 12:36:09;;;;;;;4.25;1.50;;;15.40;85.60;;;;;;4997586;28;20041;-75
2022/11/14 12:38:50;;;;;;;1.75;1.40;;;15.50;85.80;;;;;;5030280;28;20057;-75
2022/11/14 12:41:24;;;;;;;2.90;1.50;;;15.40;85.70;;;;;;4998103;28;20033;-75
2022/11/14 12:43:50;;;;;;;4.07;1.70;;;15.50;85.80;;;;;;5013783;28;20127;-75
2022/11/14 12:46:16;;;;;;;2.80;1.65;;;15.50;85.80;;;;;;5013372;28;20495;-75
2022/11/14 12:48:44;;;;;;;3.05;1.55;;;15.50;85.80;;;;;;5022289;28;20133;-75
2022/11/14 12:51:45;;;;;;;2.08;1.70;;;15.50;85.80;;;;;;5014683;28;20529;-75
2022/11/14 12:54:45;;;;;;;1.88;1.40;;;15.50;85.80;;;;;;5031920;28;20029;-75
2022/11/14 12:57:46;;;;;;;3.28;1.70;;;15.50;85.70;;;;;;5030714;28;20444;-75
2022/11/14 13:00:03;;;;;;;3.33;1.60;;;15.50;85.80;;;;;;5030556;28;20139;-75